Liberal, KS

11:20 AM CST on February 28, 2017 (GMT -0600)
Liberal Municipal

Weather History for KLBL - February, 2013

Change the Weather History Date:

Saturday, February 2, 2013

  Actual Average Record
Temperature  
Mean Temperature 40 °F -  
Max Temperature 55 °F 47 °F 74 °F (1963)
Min Temperature 26 °F 20 °F -10 °F (1951)
Degree Days  
Heating Degree Days 24    
Moisture  
Dew Point 22 °F    
Average Humidity 54    
Maximum Humidity 80    
Minimum Humidity 26    
Precipitation  
Precipitation 0.00 in - - ()
Sea Level Pressure  
Sea Level Pressure 30.28 in    
Wind  
Wind Speed 10 mph (WNW)    
Max Wind Speed 22 mph    
Max Gust Speed 25 mph    
Visibility 10 miles    
Events      
Averages and records for this station are not official NWS values.
T = Trace of Precipitation, MM = Missing Value Source: NWS Daily Summary

Daily Weather History Graph

Daily Weather History Graph

Search for Another Location

Airport or City:

Trip Planner

Search our weather history database for the weather conditions in past years. The results will help you decide how hot, cold, wet, or windy it might be!

Date:

Astronomy

Feb. 02, 2013 Rise Set
Actual Time 7:45 AM CST 6:10 PM CST
Civil Twilight 7:18 AM CST 6:37 PM CST
Nautical Twilight 6:47 AM CST 7:08 PM CST
Astronomical Twilight 6:16 AM CST 7:39 PM CST
Moon 12:08 AM CST (2/2) 11:08 AM CST (2/2)
Length of Visible Light 11h 19m
Length of Day
10h 25m
Waning Gibbous, 59% of the Moon is Illuminated
Feb 2
Waning Gibbous
Feb 3
Last Quarter
Feb 10
New
Feb 17
First Quarter
Feb 25
Full

Hourly Weather History & Observations

Time (CST) Temp. Windchill Dew Point Humidity Pressure Visibility Wind Dir Wind Speed Gust Speed Precip Events Conditions
12:15 AM 26.6 °F 19.1 °F 17.6 °F 69% 30.16 in 10.0 mi NNW 6.9 mph - N/A   Clear
12:35 AM 26.6 °F 22.6 °F 17.6 °F 69% 30.17 in 10.0 mi NNW 3.5 mph - N/A   Clear
12:55 AM 26.6 °F 19.1 °F 17.6 °F 69% 30.18 in 10.0 mi WNW 6.9 mph - N/A   Clear
1:15 AM 26.6 °F 17.5 °F 17.6 °F 69% 30.18 in 10.0 mi NNW 9.2 mph - N/A   Clear
1:35 AM 26.6 °F 16.8 °F 17.6 °F 69% 30.19 in 10.0 mi WNW 10.4 mph - N/A   Clear
1:55 AM 26.6 °F 18.2 °F 19.4 °F 74% 30.19 in 10.0 mi NW 8.1 mph - N/A   Clear
2:15 AM 26.6 °F 18.2 °F 19.4 °F 74% 30.20 in 10.0 mi NW 8.1 mph - N/A   Clear
2:35 AM 28.4 °F 18.0 °F 21.2 °F 74% 30.21 in 10.0 mi NW 12.7 mph - N/A   Clear
2:55 AM 28.4 °F 19.1 °F 21.2 °F 74% 30.21 in 10.0 mi NNW 10.4 mph - N/A   Clear
3:15 AM 28.4 °F 19.7 °F 21.2 °F 74% 30.22 in 10.0 mi NW 9.2 mph - N/A   Clear
3:35 AM 28.4 °F 18.5 °F 19.4 °F 69% 30.23 in 10.0 mi NW 11.5 mph - N/A   Clear
3:55 AM 28.4 °F 19.1 °F 21.2 °F 74% 30.24 in 10.0 mi NW 10.4 mph - N/A   Clear
4:15 AM 28.4 °F 18.5 °F 21.2 °F 74% 30.24 in 10.0 mi NW 11.5 mph - N/A   Clear
4:35 AM 28.4 °F 19.1 °F 21.2 °F 74% 30.25 in 10.0 mi NW 10.4 mph - N/A   Clear
4:55 AM 28.4 °F 18.0 °F 21.2 °F 74% 30.26 in 10.0 mi NW 12.7 mph - N/A   Clear
5:15 AM 28.4 °F 18.5 °F 21.2 °F 74% 30.27 in 10.0 mi NW 11.5 mph - N/A   Clear
5:35 AM 28.4 °F 18.5 °F 21.2 °F 74% 30.27 in 10.0 mi NW 11.5 mph - N/A   Clear
5:55 AM 28.4 °F 18.5 °F 23.0 °F 80% 30.28 in 10.0 mi NW 11.5 mph - N/A   Clear
6:15 AM 28.4 °F 17.5 °F 21.2 °F 74% 30.29 in 10.0 mi NW 13.8 mph - N/A   Clear
6:35 AM 28.4 °F 17.5 °F 21.2 °F 74% 30.29 in 10.0 mi NW 13.8 mph - N/A   Clear
6:55 AM 28.4 °F 18.5 °F 21.2 °F 74% 30.29 in 10.0 mi NW 11.5 mph - N/A   Clear
7:15 AM 28.4 °F 18.5 °F 21.2 °F 74% 30.29 in 10.0 mi NW 11.5 mph - N/A   Clear
7:35 AM 26.6 °F 16.8 °F 19.4 °F 74% 30.30 in 10.0 mi WNW 10.4 mph - N/A   Clear
7:55 AM 26.6 °F 16.2 °F 21.2 °F 80% 30.30 in 10.0 mi WNW 11.5 mph - N/A   Clear
8:15 AM 28.4 °F 18.5 °F 21.2 °F 74% 30.31 in 10.0 mi WNW 11.5 mph - N/A   Clear
8:35 AM 30.2 °F 20.8 °F 23.0 °F 75% 30.31 in 10.0 mi WNW 11.5 mph - N/A   Clear
8:55 AM 32.0 °F 22.5 °F 24.8 °F 75% 30.32 in 10.0 mi WNW 12.7 mph - N/A   Clear
9:15 AM 35.6 °F 27.1 °F 26.6 °F 70% 30.33 in 10.0 mi NW 12.7 mph - N/A   Clear
9:35 AM 37.4 °F 28.5 °F 28.4 °F 70% 30.34 in 10.0 mi NW 15.0 mph 18.4 mph N/A   Clear
9:55 AM 41.0 °F 33.1 °F 30.2 °F 65% 30.35 in 10.0 mi NW 15.0 mph - N/A   Clear
10:15 AM 42.8 °F 35.4 °F 30.2 °F 61% 30.35 in 10.0 mi NW 15.0 mph - N/A   Clear
10:35 AM 46.4 °F 39.5 °F 30.2 °F 53% 30.35 in 10.0 mi NW 17.3 mph - N/A   Clear
10:55 AM 48.2 °F - 30.2 °F 50% 30.35 in 10.0 mi NNW 19.6 mph - N/A   Clear
11:15 AM 48.2 °F - 30.2 °F 50% 30.35 in 10.0 mi NNW 21.9 mph - N/A   Clear
11:35 AM 50.0 °F - 28.4 °F 43% 30.35 in 10.0 mi NNW 18.4 mph 25.3 mph N/A   Clear
11:55 AM 50.0 °F - 28.4 °F 43% 30.35 in 10.0 mi North 18.4 mph 21.9 mph N/A   Clear
12:15 PM 51.8 °F - 26.6 °F 38% 30.34 in 10.0 mi NNW 16.1 mph 20.7 mph N/A   Clear
12:35 PM 51.8 °F - 26.6 °F 38% 30.34 in 10.0 mi NNW 15.0 mph - N/A   Clear
12:55 PM 51.8 °F - 26.6 °F 38% 30.33 in 10.0 mi NNW 12.7 mph 21.9 mph N/A   Clear
1:15 PM 53.6 °F - 26.6 °F 35% 30.32 in 10.0 mi North 10.4 mph 18.4 mph N/A   Clear
1:35 PM 53.6 °F - 24.8 °F 33% 30.30 in 10.0 mi NNW 12.7 mph - N/A   Clear
1:55 PM 53.6 °F - 24.8 °F 33% 30.30 in 10.0 mi North 6.9 mph - N/A   Clear
2:15 PM 53.6 °F - 23.0 °F 30% 30.29 in 10.0 mi NNW 10.4 mph - N/A   Clear
2:35 PM 53.6 °F - 23.0 °F 30% 30.29 in 10.0 mi North 10.4 mph - N/A   Clear
2:55 PM 53.6 °F - 21.2 °F 28% 30.29 in 10.0 mi North 8.1 mph - N/A   Clear
3:15 PM 53.6 °F - 21.2 °F 28% 30.29 in 10.0 mi NNW 8.1 mph - N/A   Clear
3:35 PM 55.4 °F - 23.0 °F 29% 30.29 in 10.0 mi NW 10.4 mph - N/A   Clear
3:55 PM 55.4 °F - 21.2 °F 26% 30.29 in 10.0 mi WNW 11.5 mph 16.1 mph N/A   Clear
4:15 PM 55.4 °F - 23.0 °F 29% 30.29 in 10.0 mi West 10.4 mph - N/A   Clear
4:35 PM 53.6 °F - 21.2 °F 28% 30.29 in 10.0 mi WNW 10.4 mph - N/A   Clear
4:55 PM 53.6 °F - 23.0 °F 30% 30.29 in 10.0 mi WNW 10.4 mph - N/A   Clear
5:15 PM 53.6 °F - 21.2 °F 28% 30.29 in 10.0 mi West 8.1 mph - N/A   Clear
5:35 PM 51.8 °F - 21.2 °F 30% 30.28 in 10.0 mi West 5.8 mph - N/A   Clear
5:55 PM 48.2 °F - 21.2 °F 34% 30.28 in 10.0 mi West 3.5 mph - N/A   Clear
6:15 PM 46.4 °F - 21.2 °F 37% 30.29 in 10.0 mi Calm Calm - N/A   Clear
6:35 PM 46.4 °F - 19.4 °F 34% 30.29 in 10.0 mi Calm Calm - N/A   Clear
6:55 PM 44.6 °F - 17.6 °F 34% 30.29 in 10.0 mi Calm Calm - N/A   Clear
7:15 PM 44.6 °F 43.1 °F 21.2 °F 39% 30.29 in 10.0 mi South 3.5 mph - N/A   Clear
7:35 PM 41.0 °F 37.1 °F 17.6 °F 39% 30.29 in 10.0 mi South 5.8 mph - N/A   Clear
7:55 PM 37.4 °F 32.1 °F 15.8 °F 41% 30.29 in 10.0 mi South 6.9 mph - N/A   Clear
8:15 PM 37.4 °F 34.9 °F 17.6 °F 45% 30.29 in 10.0 mi SSE 3.5 mph - N/A   Clear
8:35 PM 39.2 °F 35.9 °F 21.2 °F 49% 30.29 in 10.0 mi SSE 4.6 mph - N/A   Clear
8:55 PM 39.2 °F - 19.4 °F 45% 30.29 in 10.0 mi Calm Calm - N/A   Clear
9:15 PM 33.8 °F 27.7 °F 15.8 °F 48% 30.29 in 10.0 mi South 6.9 mph - N/A   Clear
9:35 PM 33.8 °F 26.4 °F 17.6 °F 52% 30.29 in 10.0 mi SSW 9.2 mph - N/A   Clear
9:55 PM 33.8 °F 27.7 °F 17.6 °F 52% 30.29 in 10.0 mi SSW 6.9 mph - N/A   Clear
10:15 PM 35.6 °F 29.9 °F 19.4 °F 52% 30.29 in 10.0 mi SSW 6.9 mph - N/A   Clear
10:35 PM 35.6 °F 29.9 °F 17.6 °F 48% 30.29 in 10.0 mi SSW 6.9 mph - N/A   Clear
10:55 PM 33.8 °F 28.6 °F 15.8 °F 48% 30.29 in 10.0 mi SSW 5.8 mph - N/A   Clear
11:15 PM 35.6 °F 29.2 °F 19.4 °F 52% 30.29 in 10.0 mi SSW 8.1 mph - N/A   Clear
11:35 PM 32.0 °F 26.4 °F 17.6 °F 55% 30.29 in 10.0 mi SSW 5.8 mph - N/A   Clear
11:55 PM 30.2 °F 26.7 °F 15.8 °F 55% 30.29 in 10.0 mi SSW 3.5 mph - N/A   Clear